createdAt,value
2019-03-29T00:00:03.872Z,31.83
2019-03-29T00:02:34.440Z,14.70
2019-03-29T00:05:05.092Z,11.37
2019-03-29T00:07:39.870Z,23.43
2019-03-29T00:10:08.008Z,13.00
2019-03-29T00:12:38.566Z,8.77
2019-03-29T00:15:09.189Z,13.73
2019-03-29T00:17:39.764Z,14.87
2019-03-29T00:20:10.507Z,10.77
2019-03-29T00:22:41.106Z,15.87
2019-03-29T00:25:11.652Z,24.70
2019-03-29T00:27:42.147Z,18.10
2019-03-29T00:30:12.919Z,17.30
2019-03-29T00:32:43.486Z,10.80
2019-03-29T00:35:14.361Z,32.57
2019-03-29T00:37:53.400Z,30.57
2019-03-29T00:40:17.179Z,17.73
2019-03-29T00:42:47.675Z,16.70
2019-03-29T00:45:19.015Z,11.90
2019-03-29T00:47:49.929Z,15.73
2019-03-29T00:50:20.767Z,16.80
2019-03-29T00:52:51.239Z,21.63
2019-03-29T00:55:21.800Z,15.80
2019-03-29T00:57:52.297Z,16.40
2019-03-29T01:00:23.084Z,16.97
2019-03-29T01:02:53.585Z,14.07
2019-03-29T01:05:24.148Z,11.73
2019-03-29T01:08:07.086Z,16.03
2019-03-29T01:10:26.736Z,15.83
2019-03-29T01:12:57.312Z,16.43
2019-03-29T01:15:27.868Z,18.80
2019-03-29T01:17:58.759Z,9.30
2019-03-29T01:20:29.308Z,8.67
2019-03-29T01:22:59.872Z,11.40
2019-03-29T01:25:30.343Z,28.47
2019-03-29T01:28:01.022Z,32.03
2019-03-29T01:30:31.591Z,36.67
2019-03-29T01:33:02.072Z,32.37
2019-03-29T01:35:32.641Z,30.77
2019-03-29T01:38:03.128Z,35.53
2019-03-29T01:40:35.068Z,25.83
2019-03-29T01:43:05.679Z,19.53
2019-03-29T01:45:36.263Z,23.43
2019-03-29T01:48:06.823Z,24.23
2019-03-29T01:50:37.325Z,16.77
2019-03-29T01:53:07.888Z,20.83
2019-03-29T01:55:38.383Z,17.37
2019-03-29T01:58:08.944Z,13.47
2019-03-29T02:00:39.431Z,15.63
2019-03-29T02:03:09.828Z,13.57
2019-03-29T02:05:40.327Z,11.30
2019-03-29T02:08:10.804Z,42.63
2019-03-29T02:10:41.386Z,36.40
2019-03-29T02:13:11.951Z,35.00
2019-03-29T02:15:42.527Z,26.30
2019-03-29T02:18:13.319Z,20.40
2019-03-29T02:20:44.664Z,15.67
2019-03-29T02:23:15.151Z,24.13
2019-03-29T02:25:45.728Z,21.80
2019-03-29T02:28:16.314Z,14.50
2019-03-29T02:30:46.866Z,19.07
2019-03-29T02:33:17.289Z,17.63
2019-03-29T02:35:47.712Z,10.90
2019-03-29T02:38:18.347Z,10.73
2019-03-29T02:40:50.861Z,9.20
2019-03-29T02:43:20.842Z,26.60
2019-03-29T02:45:51.418Z,16.53
2019-03-29T02:48:21.987Z,12.20
2019-03-29T02:50:52.426Z,27.93
2019-03-29T02:53:22.924Z,12.93
2019-03-29T02:55:53.413Z,14.73
2019-03-29T02:58:23.980Z,18.47
2019-03-29T03:00:54.555Z,16.00
2019-03-29T03:03:25.050Z,31.37
2019-03-29T03:05:55.524Z,22.57
2019-03-29T03:08:26.114Z,13.83
2019-03-29T03:10:56.680Z,12.80
2019-03-29T03:13:27.176Z,14.33
2019-03-29T03:15:57.677Z,19.97
2019-03-29T03:18:28.167Z,12.20
2019-03-29T03:20:58.572Z,10.93
2019-03-29T03:23:29.173Z,15.70
2019-03-29T03:25:59.709Z,13.43
2019-03-29T03:28:30.193Z,9.67
2019-03-29T03:31:00.743Z,13.43
2019-03-29T03:33:31.243Z,11.63
2019-03-29T03:36:01.709Z,16.77
2019-03-29T03:38:32.300Z,10.93
2019-03-29T03:41:02.862Z,13.10
2019-03-29T03:43:33.365Z,11.07
2019-03-29T03:46:03.914Z,10.53
2019-03-29T03:48:34.611Z,9.27
2019-03-29T03:51:05.689Z,9.43
2019-03-29T03:53:36.436Z,10.70
2019-03-29T03:56:08.416Z,9.03
2019-03-29T03:58:40.099Z,15.33
2019-03-29T04:01:10.594Z,12.77
2019-03-29T04:03:41.148Z,12.93
2019-03-29T04:06:11.736Z,10.67
2019-03-29T04:08:42.279Z,15.30
2019-03-29T04:11:12.827Z,11.40
2019-03-29T04:13:43.352Z,12.27
2019-03-29T04:16:13.905Z,10.97
2019-03-29T04:18:44.396Z,17.73
2019-03-29T04:21:14.874Z,12.90
2019-03-29T04:23:45.358Z,16.97
2019-03-29T04:26:15.763Z,17.97
2019-03-29T04:28:57.009Z,18.40
2019-03-29T04:31:19.431Z,11.90
2019-03-29T04:33:49.984Z,11.13
2019-03-29T04:36:20.729Z,16.50
2019-03-29T04:38:51.212Z,13.00
2019-03-29T04:41:21.683Z,12.77
2019-03-29T04:43:52.496Z,10.70
2019-03-29T04:46:22.968Z,16.33
2019-03-29T04:48:53.533Z,13.10
2019-03-29T04:51:24.096Z,13.23
2019-03-29T04:53:54.779Z,10.50
2019-03-29T04:56:25.324Z,9.83
2019-03-29T04:58:55.882Z,10.60
2019-03-29T05:01:26.316Z,18.10
2019-03-29T05:03:56.901Z,16.93
2019-03-29T05:06:27.448Z,17.23
2019-03-29T05:08:58.101Z,13.93
2019-03-29T05:11:28.569Z,10.67
2019-03-29T05:13:59.077Z,9.20
2019-03-29T05:16:29.632Z,7.17
2019-03-29T05:19:00.043Z,7.67
2019-03-29T05:21:30.511Z,7.17
2019-03-29T05:24:00.933Z,7.90
2019-03-29T05:26:31.480Z,7.23
2019-03-29T05:29:02.055Z,5.90
2019-03-29T05:31:32.600Z,7.70
2019-03-29T05:34:03.020Z,7.27
2019-03-29T05:36:33.413Z,7.63
2019-03-29T05:39:04.761Z,6.93
2019-03-29T05:41:35.251Z,7.33
2019-03-29T05:44:05.843Z,9.90
2019-03-29T05:46:36.400Z,6.30
2019-03-29T05:49:06.888Z,6.70
2019-03-29T05:51:37.445Z,6.70
2019-03-29T05:54:08.024Z,6.80
2019-03-29T05:56:38.577Z,6.27
2019-03-29T05:59:09.094Z,5.50
2019-03-29T06:01:39.637Z,5.60
2019-03-29T06:04:10.129Z,6.40
2019-03-29T06:06:40.527Z,5.77
2019-03-29T06:09:11.049Z,8.07
2019-03-29T06:11:41.444Z,5.20
2019-03-29T06:14:11.982Z,9.07
2019-03-29T06:16:42.439Z,8.57
2019-03-29T06:19:12.930Z,9.10
2019-03-29T06:21:43.504Z,7.13
2019-03-29T06:24:14.031Z,5.37
2019-03-29T06:26:44.489Z,6.13
2019-03-29T06:29:14.931Z,6.43
2019-03-29T06:31:45.469Z,6.63
2019-03-29T06:34:15.969Z,5.47
2019-03-29T06:36:47.223Z,10.40
2019-03-29T06:39:21.183Z,7.17
2019-03-29T06:41:50.265Z,5.87
2019-03-29T06:44:20.920Z,6.37
2019-03-29T06:46:51.393Z,7.67
2019-03-29T06:49:21.902Z,13.83
2019-03-29T06:51:52.629Z,6.90
2019-03-29T06:54:23.141Z,15.70
2019-03-29T06:56:53.560Z,19.10
2019-03-29T06:59:24.075Z,13.90
2019-03-29T07:01:54.774Z,13.33
2019-03-29T07:04:25.236Z,11.43
2019-03-29T07:06:56.240Z,13.00
2019-03-29T07:09:26.815Z,12.10
2019-03-29T07:11:57.307Z,11.93
2019-03-29T07:14:27.872Z,11.57
2019-03-29T07:16:58.357Z,11.77
2019-03-29T07:19:28.932Z,9.33
2019-03-29T07:21:59.405Z,9.10
2019-03-29T07:24:29.984Z,8.70
2019-03-29T07:27:00.968Z,12.30
2019-03-29T07:29:31.400Z,19.97
2019-03-29T07:32:02.003Z,21.77
2019-03-29T07:34:32.596Z,24.50
2019-03-29T07:37:05.711Z,24.77
2019-03-29T07:39:35.408Z,25.23
2019-03-29T07:42:06.025Z,25.23
2019-03-29T07:44:36.595Z,25.93
2019-03-29T07:47:07.177Z,17.77
2019-03-29T07:49:37.755Z,19.17
2019-03-29T07:52:08.263Z,20.83
2019-03-29T07:54:38.810Z,18.93
2019-03-29T07:57:09.321Z,20.73
2019-03-29T07:59:39.725Z,16.47
2019-03-29T08:02:10.311Z,16.13
2019-03-29T08:04:40.971Z,15.10
2019-03-29T08:07:11.565Z,16.07
2019-03-29T08:09:42.389Z,16.50
2019-03-29T08:12:13.021Z,14.27
2019-03-29T08:14:43.560Z,13.27
2019-03-29T08:17:14.059Z,12.60
2019-03-29T08:19:44.552Z,13.70
2019-03-29T08:22:15.178Z,9.70
2019-03-29T08:24:45.734Z,12.37
2019-03-29T08:27:16.580Z,13.60
2019-03-29T08:29:46.989Z,11.97
2019-03-29T08:32:17.635Z,10.17
2019-03-29T08:34:48.197Z,10.90
2019-03-29T08:37:18.995Z,13.90
2019-03-29T08:39:49.561Z,16.87
2019-03-29T08:42:20.310Z,13.40
2019-03-29T08:44:50.876Z,14.37
2019-03-29T08:47:21.372Z,9.57
2019-03-29T08:49:51.861Z,7.73
2019-03-29T08:52:22.364Z,6.97
2019-03-29T08:54:52.915Z,7.03
2019-03-29T08:57:23.420Z,10.13
2019-03-29T08:59:53.932Z,7.23
2019-03-29T09:02:25.243Z,6.17
2019-03-29T09:04:55.983Z,8.10
2019-03-29T09:07:28.113Z,5.77
2019-03-29T09:09:58.824Z,6.70
2019-03-29T09:12:29.298Z,5.27
2019-03-29T09:15:03.452Z,4.93
2019-03-29T09:17:32.425Z,8.30
2019-03-29T09:20:03.010Z,6.73
2019-03-29T09:22:33.574Z,6.83
2019-03-29T09:25:04.594Z,8.63
2019-03-29T09:27:35.169Z,7.70
2019-03-29T09:30:06.063Z,6.93
2019-03-29T09:32:36.612Z,7.63
2019-03-29T09:35:07.109Z,9.90
2019-03-29T09:37:37.607Z,9.23
2019-03-29T09:40:08.269Z,11.27
2019-03-29T09:42:38.841Z,9.97
2019-03-29T09:45:09.417Z,11.03
2019-03-29T09:47:41.131Z,9.70
2019-03-29T09:50:12.163Z,11.93
2019-03-29T09:52:42.727Z,12.87
2019-03-29T09:55:13.425Z,10.90
2019-03-29T09:57:43.912Z,8.57
2019-03-29T10:00:20.825Z,9.53
2019-03-29T10:02:48.228Z,9.10
2019-03-29T10:05:20.221Z,8.70
2019-03-29T10:07:51.132Z,8.53
2019-03-29T10:10:21.659Z,10.60
2019-03-29T10:12:52.216Z,9.73
2019-03-29T10:15:22.724Z,9.37
2019-03-29T10:17:53.292Z,9.03
2019-03-29T10:20:23.788Z,9.87
2019-03-29T10:22:54.282Z,11.23
2019-03-29T10:25:24.953Z,10.67
2019-03-29T10:27:55.518Z,9.73
2019-03-29T10:30:39.400Z,9.87
2019-03-29T10:33:09.989Z,10.97
2019-03-29T10:35:51.434Z,10.53
2019-03-29T10:38:13.007Z,13.97
2019-03-29T10:40:43.615Z,13.30
2019-03-29T10:43:14.196Z,10.60
2019-03-29T10:45:44.715Z,12.83
2019-03-29T10:48:15.297Z,11.57
2019-03-29T10:50:45.915Z,10.40
2019-03-29T10:53:16.492Z,13.37
2019-03-29T10:55:47.090Z,11.60
2019-03-29T10:58:17.674Z,12.23
2019-03-29T11:00:48.112Z,12.33
2019-03-29T11:03:19.755Z,11.47
2019-03-29T11:05:50.507Z,11.10
2019-03-29T11:08:21.080Z,11.60
2019-03-29T11:10:51.579Z,9.57
2019-03-29T11:13:22.152Z,8.30
2019-03-29T11:15:52.654Z,10.07
2019-03-29T11:18:23.129Z,9.37
2019-03-29T11:20:53.717Z,8.40
2019-03-29T11:23:24.197Z,9.70
2019-03-29T11:25:54.783Z,10.87
2019-03-29T11:28:25.344Z,11.87
2019-03-29T11:30:55.936Z,10.67
2019-03-29T11:33:26.421Z,11.10
2019-03-29T11:35:57.000Z,9.50
2019-03-29T11:38:27.553Z,9.70
2019-03-29T11:40:58.209Z,9.43
2019-03-29T11:43:28.783Z,10.40
2019-03-29T11:45:59.765Z,9.30
2019-03-29T11:48:30.240Z,8.83
2019-03-29T11:51:00.978Z,8.53
2019-03-29T11:53:31.480Z,8.63
2019-03-29T11:56:02.071Z,8.37
2019-03-29T11:58:32.645Z,7.67
2019-03-29T12:01:05.466Z,8.97
2019-03-29T12:03:35.903Z,7.73
2019-03-29T12:06:06.563Z,7.00
2019-03-29T12:08:37.123Z,6.93
2019-03-29T12:11:07.717Z,7.50
2019-03-29T12:13:41.396Z,6.87
2019-03-29T12:16:10.545Z,5.13
2019-03-29T12:18:41.108Z,5.63
2019-03-29T12:21:11.672Z,5.60
2019-03-29T12:23:42.224Z,7.60
2019-03-29T12:26:12.716Z,6.80
2019-03-29T12:28:43.375Z,6.87
2019-03-29T12:31:14.475Z,7.30
2019-03-29T12:33:44.959Z,6.23
2019-03-29T12:36:15.600Z,6.57
2019-03-29T12:38:46.089Z,8.07
2019-03-29T12:41:16.590Z,7.43
2019-03-29T12:43:55.617Z,8.27
2019-03-29T12:46:23.309Z,7.27
2019-03-29T12:48:53.974Z,5.90
2019-03-29T12:51:24.575Z,8.40
2019-03-29T12:53:55.147Z,8.40
2019-03-29T12:56:25.828Z,8.53
2019-03-29T12:58:56.412Z,7.67
2019-03-29T13:01:38.466Z,8.03
2019-03-29T13:03:59.631Z,7.37
2019-03-29T13:06:30.390Z,10.00
2019-03-29T13:09:01.064Z,6.87
2019-03-29T13:11:31.866Z,7.30
2019-03-29T13:14:10.131Z,7.87
2019-03-29T13:16:35.079Z,5.90
2019-03-29T13:19:05.644Z,6.90
2019-03-29T13:21:38.879Z,7.50
2019-03-29T13:24:08.741Z,6.27
2019-03-29T13:26:39.334Z,5.97
2019-03-29T13:29:09.895Z,5.73
2019-03-29T13:31:40.483Z,5.47
2019-03-29T13:34:11.037Z,6.43
2019-03-29T13:36:41.681Z,6.07
2019-03-29T13:39:12.237Z,5.23
2019-03-29T13:41:42.842Z,5.20
2019-03-29T13:44:23.823Z,5.60
2019-03-29T13:46:45.752Z,5.17
2019-03-29T13:49:16.156Z,5.40
2019-03-29T13:51:46.829Z,5.10
2019-03-29T13:54:17.400Z,6.93
2019-03-29T13:56:47.921Z,6.17
2019-03-29T13:59:18.407Z,6.17
2019-03-29T14:01:49.129Z,5.07
2019-03-29T14:04:19.620Z,4.80
2019-03-29T14:06:50.188Z,4.57
2019-03-29T14:09:20.771Z,4.53
2019-03-29T14:11:52.070Z,3.90
2019-03-29T14:14:22.551Z,4.03
2019-03-29T14:16:53.369Z,4.20
2019-03-29T14:19:25.824Z,3.57
2019-03-29T14:21:56.320Z,3.40
2019-03-29T14:24:29.740Z,4.40
2019-03-29T14:27:00.366Z,3.90
2019-03-29T14:29:30.883Z,3.93
2019-03-29T14:32:01.626Z,3.13
2019-03-29T14:34:32.228Z,3.63
2019-03-29T14:37:02.945Z,3.67
2019-03-29T14:39:33.528Z,3.53
2019-03-29T14:42:04.203Z,3.70
2019-03-29T14:44:34.805Z,3.77
2019-03-29T14:47:05.412Z,4.10
2019-03-29T14:49:36.067Z,5.50
2019-03-29T14:52:06.764Z,3.13
2019-03-29T14:54:37.344Z,4.40
2019-03-29T14:57:08.004Z,3.70
2019-03-29T14:59:38.569Z,4.37
2019-03-29T15:02:09.245Z,3.27
2019-03-29T15:04:39.787Z,4.83
2019-03-29T15:07:10.986Z,4.30
2019-03-29T15:09:42.291Z,4.53
2019-03-29T15:12:13.807Z,3.30
2019-03-29T15:14:45.058Z,4.33
2019-03-29T15:17:16.453Z,4.53
2019-03-29T15:19:47.822Z,5.50
2019-03-29T15:22:19.214Z,3.57
2019-03-29T15:24:50.508Z,4.97
2019-03-29T15:27:21.868Z,3.37
2019-03-29T15:29:53.140Z,4.00
2019-03-29T15:32:24.534Z,4.27
2019-03-29T15:34:55.791Z,3.93
2019-03-29T15:37:27.225Z,4.37
2019-03-29T15:40:02.358Z,3.10
2019-03-29T15:42:33.839Z,4.53
2019-03-29T15:45:19.323Z,3.97
2019-03-29T15:47:40.352Z,4.33
2019-03-29T15:50:11.688Z,4.60
2019-03-29T15:52:42.323Z,3.97
2019-03-29T15:55:13.002Z,3.53
2019-03-29T15:57:43.521Z,4.50
2019-03-29T16:00:14.222Z,4.03
2019-03-29T16:02:44.797Z,3.90
2019-03-29T16:05:15.372Z,4.43
2019-03-29T16:07:45.881Z,3.30
2019-03-29T16:10:16.358Z,4.10
2019-03-29T16:12:46.944Z,4.30
2019-03-29T16:15:17.492Z,3.70
2019-03-29T16:17:48.099Z,3.30
2019-03-29T16:20:18.608Z,4.40
2019-03-29T16:22:49.110Z,6.03
2019-03-29T16:25:19.607Z,3.73
2019-03-29T16:27:50.273Z,3.00
2019-03-29T16:30:20.771Z,5.33
2019-03-29T16:32:51.332Z,4.87
2019-03-29T16:35:21.921Z,3.93
2019-03-29T16:37:57.355Z,5.07
2019-03-29T16:40:25.292Z,4.17
2019-03-29T16:42:55.769Z,4.30
2019-03-29T16:45:26.269Z,3.30
2019-03-29T16:47:56.751Z,3.43
2019-03-29T16:50:27.376Z,4.20
2019-03-29T16:52:57.924Z,4.90
2019-03-29T16:55:28.537Z,4.30
2019-03-29T16:57:59.109Z,4.53
2019-03-29T17:00:29.681Z,4.50
2019-03-29T17:03:00.160Z,5.03
2019-03-29T17:05:31.313Z,5.00
2019-03-29T17:08:05.015Z,4.30
2019-03-29T17:10:34.156Z,3.40
2019-03-29T17:13:04.717Z,3.87
2019-03-29T17:15:35.409Z,3.60
2019-03-29T17:18:06.146Z,4.50
2019-03-29T17:20:36.652Z,4.37
2019-03-29T17:23:07.212Z,4.87
2019-03-29T17:25:37.817Z,4.90
2019-03-29T17:28:08.372Z,3.57
2019-03-29T17:30:46.728Z,3.27
2019-03-29T17:33:17.281Z,3.97
2019-03-29T17:35:47.859Z,5.37
